Time;durP1;ratioP1;P1;durP2;ratioP2;P2;SDS_P1;SDS_P2;PMS_P1;PMS_P2;Temp;Humidity;BMP_temperature;BMP_pressure;BME280_temperature;BME280_humidity;BME280_pressure;Samples;Min_cycle;Max_cycle;Signal;HPM_P1;HPM_P2
2022/12/07 00:01:24;;;;;;;3.10;0.52;;;;;;;4.70;100.00;101834.28;5070548;28;20479;-38
2022/12/07 00:03:51;;;;;;;1.73;0.30;;;;;;;4.64;100.00;101832.09;5060576;28;20055;-39
2022/12/07 00:06:17;;;;;;;3.88;0.60;;;;;;;4.62;100.00;101834.88;5055250;28;20058;-37
2022/12/07 00:08:43;;;;;;;3.25;0.73;;;;;;;4.54;100.00;101825.78;5061440;28;20111;-38
2022/12/07 00:11:14;;;;;;;10.00;0.50;;;;;;;4.50;100.00;101824.31;5070374;28;20032;-40
2022/12/07 00:13:40;;;;;;;7.32;0.80;;;;;;;4.46;100.00;101830.84;5069007;28;20035;-37
2022/12/07 00:16:08;;;;;;;15.65;1.10;;;;;;;4.43;100.00;101831.94;5049306;28;20024;-39
2022/12/07 00:18:34;;;;;;;11.68;0.75;;;;;;;4.38;100.00;101834.09;5055005;28;20040;-37
2022/12/07 00:21:06;;;;;;;8.57;0.65;;;;;;;4.36;100.00;101836.03;5060997;28;20029;-39
2022/12/07 00:23:32;;;;;;;11.05;1.00;;;;;;;4.32;100.00;101823.94;5052046;28;20028;-37
2022/12/07 00:26:03;;;;;;;12.35;1.20;;;;;;;4.31;100.00;101828.38;5070322;28;20039;-39
2022/12/07 00:28:29;;;;;;;6.93;1.02;;;;;;;4.33;100.00;101825.59;5059950;28;20429;-38
2022/12/07 00:31:02;;;;;;;12.38;0.98;;;;;;;4.33;100.00;101823.78;5053883;28;20052;-38
2022/12/07 00:33:28;;;;;;;5.85;0.75;;;;;;;4.32;100.00;101821.25;5050915;28;20079;-39
2022/12/07 00:35:58;;;;;;;5.47;0.77;;;;;;;4.30;100.00;101825.84;5048928;28;20021;-36
2022/12/07 00:38:23;;;;;;;6.28;0.88;;;;;;;4.33;100.00;101822.94;5049224;28;20029;-39
2022/12/07 00:41:03;;;;;;;18.33;1.40;;;;;;;4.34;100.00;101819.31;5065925;28;20029;-39
2022/12/07 00:43:29;;;;;;;12.55;1.25;;;;;;;4.37;100.00;101819.94;5050198;28;20063;-39
2022/12/07 00:45:55;;;;;;;5.25;1.08;;;;;;;4.34;100.00;101816.63;5064259;28;20455;-36
2022/12/07 00:48:21;;;;;;;15.07;1.25;;;;;;;4.33;100.00;101817.63;5063645;28;20033;-37
2022/12/07 00:50:46;;;;;;;13.65;1.30;;;;;;;4.36;100.00;101820.03;5050297;28;20517;-39
2022/12/07 00:53:12;;;;;;;6.75;0.82;;;;;;;4.42;100.00;101824.03;5051205;28;20116;-39
2022/12/07 00:55:37;;;;;;;7.40;0.80;;;;;;;4.50;100.00;101822.50;5049238;28;20064;-38
2022/12/07 00:58:03;;;;;;;9.95;1.02;;;;;;;4.48;100.00;101818.25;5060283;28;20021;-39
2022/12/07 01:00:28;;;;;;;8.90;1.17;;;;;;;4.49;100.00;101823.47;5050274;28;20021;-39
2022/12/07 01:02:54;;;;;;;14.65;1.27;;;;;;;4.44;100.00;101812.31;5056371;28;20081;-40
2022/12/07 01:05:19;;;;;;;13.18;1.63;;;;;;;4.39;100.00;101807.31;5070648;28;20557;-37
2022/12/07 01:07:46;;;;;;;13.10;1.27;;;;;;;4.38;100.00;101813.63;5056723;28;20025;-39
2022/12/07 01:10:12;;;;;;;10.35;1.90;;;;;;;4.34;100.00;101821.97;5068494;28;20348;-39
2022/12/07 01:12:37;;;;;;;10.82;1.35;;;;;;;4.28;100.00;101817.97;5070546;28;20116;-39
2022/12/07 01:15:03;;;;;;;15.35;1.45;;;;;;;4.24;100.00;101812.97;5056821;28;20391;-39
2022/12/07 01:17:28;;;;;;;13.60;1.10;;;;;;;4.18;100.00;101817.78;5051889;28;20103;-39
2022/12/07 01:19:54;;;;;;;9.80;0.80;;;;;;;4.15;100.00;101817.19;5065550;28;20079;-39
2022/12/07 01:22:19;;;;;;;14.40;1.40;;;;;;;4.11;100.00;101810.41;5060277;28;20037;-41
2022/12/07 01:24:46;;;;;;;10.48;1.10;;;;;;;4.08;100.00;101811.50;5050653;28;20040;-39
2022/12/07 01:27:12;;;;;;;10.45;0.88;;;;;;;4.06;100.00;101818.75;5050197;28;20049;-39
2022/12/07 01:29:37;;;;;;;5.68;1.15;;;;;;;4.30;100.00;101821.38;5050092;28;20502;-40
2022/12/07 01:32:02;;;;;;;10.27;1.13;;;;;;;4.49;100.00;101826.13;5059541;28;20020;-37
2022/12/07 01:34:28;;;;;;;10.10;1.23;;;;;;;4.73;100.00;101831.38;5071015;28;20090;-40
2022/12/07 01:36:53;;;;;;;8.02;0.88;;;;;;;4.86;100.00;101828.59;5063137;28;20029;-40
2022/12/07 01:39:18;;;;;;;14.35;1.35;;;;;;;4.90;100.00;101830.06;5056722;28;20030;-40
2022/12/07 01:41:44;;;;;;;18.23;1.58;;;;;;;4.95;100.00;101827.88;5049998;28;20049;-39
2022/12/07 01:44:22;;;;;;;11.40;1.30;;;;;;;4.91;100.00;101820.25;5053538;28;20566;-37
2022/12/07 01:46:50;;;;;;;10.02;1.00;;;;;;;4.98;100.00;101819.63;5053613;28;20044;-39
2022/12/07 01:49:44;;;;;;;6.05;1.02;;;;;;;4.97;100.00;101811.75;5056421;28;20025;-36
2022/12/07 01:52:18;;;;;;;15.55;1.35;;;;;;;5.00;100.00;101809.69;5066992;28;20557;-36
2022/12/07 01:54:44;;;;;;;9.02;0.70;;;;;;;4.92;100.00;101805.91;5057049;28;20079;-39
2022/12/07 01:57:10;;;;;;;10.25;0.90;;;;;;;4.88;100.00;101807.16;5064159;28;20103;-36
2022/12/07 01:59:36;;;;;;;12.98;0.70;;;;;;;4.75;100.00;101800.09;5060407;28;20107;-37
2022/12/07 02:02:02;;;;;;;8.52;0.70;;;;;;;4.67;100.00;101796.34;5067887;28;20020;-40
2022/12/07 02:04:27;;;;;;;5.45;0.77;;;;;;;4.59;100.00;101794.28;5057788;28;20039;-37
2022/12/07 02:06:53;;;;;;;8.43;0.70;;;;;;;4.51;100.00;101800.19;5061025;28;20036;-39
2022/12/07 02:09:19;;;;;;;9.02;0.60;;;;;;;4.47;100.00;101798.72;5056400;28;20063;-36
2022/12/07 02:11:44;;;;;;;4.18;0.50;;;;;;;4.47;100.00;101795.22;5068826;28;20535;-38
2022/12/07 02:14:09;;;;;;;12.00;0.90;;;;;;;4.48;100.00;101795.13;5071362;28;20368;-39
2022/12/07 02:16:47;;;;;;;10.95;0.98;;;;;;;4.53;100.00;101800.94;5068923;28;20017;-40
2022/12/07 02:19:41;;;;;;;9.90;1.20;;;;;;;4.63;100.00;101795.72;5052904;28;20411;-40
2022/12/07 02:22:28;;;;;;;6.82;0.95;;;;;;;4.70;100.00;101786.28;5053708;28;20028;-37
2022/12/07 02:24:59;;;;;;;8.40;1.00;;;;;;;4.73;100.00;101782.53;5068964;28;20028;-36
2022/12/07 02:27:42;;;;;;;12.40;1.65;;;;;;;4.70;100.00;101774.78;5070916;28;20488;-39
2022/12/07 02:30:12;;;;;;;16.67;1.52;;;;;;;4.69;100.00;101778.41;5065169;28;20041;-40
2022/12/07 02:32:46;;;;;;;13.68;1.45;;;;;;;4.66;100.00;101795.50;5051529;28;20480;-40
2022/12/07 02:35:21;;;;;;;13.10;1.10;;;;;;;4.70;100.00;101785.44;5051202;28;20443;-40
2022/12/07 02:37:54;;;;;;;7.15;1.17;;;;;;;4.63;100.00;101790.38;5057639;28;20032;-37
2022/12/07 02:40:53;;;;;;;8.77;0.95;;;;;;;4.73;100.00;101785.19;5057214;28;20119;-39
2022/12/07 02:43:34;;;;;;;3.10;0.70;;;;;;;4.80;100.00;101787.25;5050411;28;20028;-39
2022/12/07 02:46:08;;;;;;;9.55;0.60;;;;;;;4.93;100.00;101792.47;5053301;28;20029;-37
2022/12/07 02:49:11;;;;;;;18.10;1.52;;;;;;;5.00;100.00;101793.69;5080265;28;20429;-40
2022/12/07 02:51:41;;;;;;;6.95;0.63;;;;;;;5.05;100.00;101788.84;5057559;28;20031;-38
2022/12/07 02:54:18;;;;;;;4.32;0.70;;;;;;;5.08;100.00;101785.03;5070730;28;20028;-39
2022/12/07 02:56:49;;;;;;;5.80;0.75;;;;;;;5.06;100.00;101779.84;5071363;28;20024;-39
2022/12/07 02:59:19;;;;;;;3.92;0.68;;;;;;;5.01;100.00;101782.03;5064296;28;20040;-39
2022/12/07 03:02:12;;;;;;;1.55;0.40;;;;;;;5.01;100.00;101782.03;5055121;28;20476;-38
2022/12/07 03:04:59;;;;;;;5.55;0.70;;;;;;;4.95;100.00;101779.00;5052299;28;20561;-39
2022/12/07 03:07:29;;;;;;;4.25;0.75;;;;;;;4.92;100.00;101780.09;5056978;28;20035;-39
2022/12/07 03:10:09;;;;;;;8.90;1.20;;;;;;;4.87;100.00;101779.63;5052100;28;20032;-39
2022/12/07 03:12:45;;;;;;;2.78;0.50;;;;;;;4.90;100.00;101790.06;5057763;28;20033;-39
2022/12/07 03:15:18;;;;;;;2.88;0.50;;;;;;;4.90;100.00;101789.19;5050205;28;20112;-38
2022/12/07 03:17:45;;;;;;;6.85;0.90;;;;;;;4.91;100.00;101788.22;5049699;28;20495;-37
2022/12/07 03:20:13;;;;;;;9.93;0.80;;;;;;;4.87;100.00;101792.97;5067719;28;20036;-39
2022/12/07 03:22:38;;;;;;;;;;;;;;;4.88;100.00;101783.97;5058352;28;20029;-38
2022/12/07 03:25:07;;;;;;;8.18;1.65;;;;;;;5.00;100.00;101783.03;5060999;28;20252;-38
2022/12/07 03:27:49;;;;;;;11.18;1.50;;;;;;;5.08;100.00;101785.03;5050678;28;20036;-40
2022/12/07 03:30:19;;;;;;;6.82;0.90;;;;;;;5.10;100.00;101782.25;5057975;28;20056;-40
2022/12/07 03:32:45;;;;;;;2.53;0.55;;;;;;;5.01;100.00;101770.53;5051784;28;20059;-39
2022/12/07 03:35:16;;;;;;;9.60;1.08;;;;;;;4.94;100.00;101777.31;5051331;28;20331;-38
2022/12/07 03:37:49;;;;;;;11.60;1.50;;;;;;;4.87;100.00;101771.63;5051815;28;20059;-40
2022/12/07 03:40:42;;;;;;;7.78;0.85;;;;;;;4.82;100.00;101763.16;5049811;28;20476;-40
2022/12/07 03:43:07;;;;;;;7.40;1.23;;;;;;;4.80;100.00;101765.91;5051376;28;20112;-40
2022/12/07 03:45:46;;;;;;;3.35;1.00;;;;;;;4.74;100.00;101755.75;5049876;28;20078;-40
2022/12/07 03:48:22;;;;;;;9.57;0.98;;;;;;;4.76;100.00;101763.59;5065711;28;20028;-40
2022/12/07 03:50:52;;;;;;;8.13;0.80;;;;;;;4.73;100.00;101763.84;5053172;28;20462;-37
2022/12/07 03:53:27;;;;;;;6.82;0.80;;;;;;;4.77;100.00;101758.16;5051101;28;20037;-40
2022/12/07 03:55:53;;;;;;;11.55;1.73;;;;;;;4.86;100.00;101758.41;5032922;28;20128;-40
2022/12/07 03:58:20;;;;;;;8.25;1.40;;;;;;;4.88;100.00;101757.31;5050963;28;20129;-38
2022/12/07 04:00:46;;;;;;;12.70;1.20;;;;;;;4.89;100.00;101756.31;5066207;28;20025;-39
2022/12/07 04:03:12;;;;;;;6.30;1.38;;;;;;;4.94;100.00;101762.16;5053080;28;20029;-41
2022/12/07 04:05:38;;;;;;;16.98;1.60;;;;;;;4.96;100.00;101760.22;5057516;28;20028;-40
2022/12/07 04:08:04;;;;;;;9.02;1.10;;;;;;;5.03;100.00;101756.09;5049101;28;20085;-38
2022/12/07 04:10:29;;;;;;;11.55;1.67;;;;;;;5.07;100.00;101746.84;5064731;28;20032;-40
2022/12/07 04:12:55;;;;;;;10.15;1.30;;;;;;;4.99;100.00;101753.78;5059902;28;20016;-40
2022/12/07 04:15:20;;;;;;;9.23;0.95;;;;;;;4.95;100.00;101746.97;5068310;28;20071;-39
2022/12/07 04:17:46;;;;;;;9.23;0.98;;;;;;;4.94;100.00;101751.47;5070477;28;20115;-39
2022/12/07 04:20:12;;;;;;;9.23;1.45;;;;;;;4.89;100.00;101752.81;5055069;28;20108;-40
2022/12/07 04:22:37;;;;;;;6.22;0.82;;;;;;;4.84;100.00;101750.50;5056488;28;20056;-40
2022/12/07 04:25:03;;;;;;;10.20;0.88;;;;;;;4.80;100.00;101749.91;5054860;28;20029;-40
2022/12/07 04:27:28;;;;;;;16.33;1.50;;;;;;;4.73;100.00;101750.53;5064151;28;20186;-40
2022/12/07 04:29:55;;;;;;;7.80;1.10;;;;;;;4.71;100.00;101749.78;5052842;28;20108;-37
2022/12/07 04:32:20;;;;;;;4.82;0.93;;;;;;;4.70;100.00;101742.78;5060012;28;20352;-39
2022/12/07 04:34:46;;;;;;;9.88;1.27;;;;;;;4.64;100.00;101741.44;5064859;28;20035;-39
2022/12/07 04:37:11;;;;;;;8.30;1.40;;;;;;;4.60;100.00;101735.50;5064729;28;20028;-40
2022/12/07 04:39:36;;;;;;;14.82;1.15;;;;;;;4.54;100.00;101735.97;5050629;28;20419;-40
2022/12/07 04:42:02;;;;;;;8.27;0.88;;;;;;;4.44;100.00;101740.34;5059745;28;20455;-38
2022/12/07 04:44:28;;;;;;;6.72;1.23;;;;;;;4.35;100.00;101738.41;5062814;28;20055;-39
2022/12/07 04:46:54;;;;;;;15.38;1.45;;;;;;;4.27;100.00;101730.16;5059947;28;20483;-40
2022/12/07 04:49:20;;;;;;;11.35;1.35;;;;;;;4.23;100.00;101729.53;5048627;28;20116;-39
2022/12/07 04:51:46;;;;;;;13.23;1.50;;;;;;;4.17;100.00;101730.00;5062731;28;20166;-39
2022/12/07 04:54:13;;;;;;;23.98;1.63;;;;;;;4.15;100.00;101727.44;5058162;28;20028;-40
2022/12/07 04:56:39;;;;;;;8.57;0.90;;;;;;;4.17;100.00;101728.19;5058908;28;20111;-38
2022/12/07 04:59:04;;;;;;;5.22;0.85;;;;;;;4.22;100.00;101727.00;5064596;28;20108;-40
2022/12/07 05:01:30;;;;;;;10.82;0.90;;;;;;;4.31;100.00;101734.25;5060338;28;20029;-39
2022/12/07 05:03:55;;;;;;;13.25;1.77;;;;;;;4.36;100.00;101729.44;5068563;28;20029;-39
2022/12/07 05:06:21;;;;;;;17.25;1.83;;;;;;;4.54;100.00;101722.66;5062344;28;20124;-37
2022/12/07 05:08:46;;;;;;;15.07;1.33;;;;;;;4.58;100.00;101728.56;5049889;28;20021;-38
2022/12/07 05:13:55;;;;;;;10.48;1.60;;;;;;;4.89;100.00;101721.66;5049987;28;20040;-40
2022/12/07 05:16:21;;;;;;;14.73;1.40;;;;;;;4.92;100.00;101715.22;5055223;28;20033;-40
2022/12/07 05:18:46;;;;;;;16.38;1.38;;;;;;;4.95;100.00;101715.84;5049776;28;20023;-40
2022/12/07 05:21:11;;;;;;;17.98;1.50;;;;;;;4.98;100.00;101715.59;5050122;28;20045;-40
2022/12/07 05:23:37;;;;;;;16.70;1.50;;;;;;;4.93;100.00;101715.13;5069049;28;20052;-40
2022/12/07 05:26:02;;;;;;;12.43;1.20;;;;;;;4.85;100.00;101720.22;5068605;28;20353;-40
2022/12/07 05:28:27;;;;;;;22.10;1.40;;;;;;;4.80;100.00;101717.91;5055105;28;20381;-38
2022/12/07 05:30:53;;;;;;;14.95;1.10;;;;;;;4.74;100.00;101709.53;5072698;28;20024;-40
2022/12/07 05:33:18;;;;;;;12.50;1.20;;;;;;;4.71;100.00;101720.47;5074654;28;20108;-37
2022/12/07 05:35:43;;;;;;;11.32;1.00;;;;;;;4.71;100.00;101718.63;5073431;28;20020;-41
2022/12/07 05:38:09;;;;;;;14.15;1.42;;;;;;;4.75;100.00;101720.09;5072270;28;20025;-40
2022/12/07 05:40:34;;;;;;;6.43;0.98;;;;;;;4.75;100.00;101722.75;5073757;28;20107;-40
2022/12/07 05:42:59;;;;;;;9.68;1.27;;;;;;;4.81;100.00;101724.94;5072117;28;20082;-39
2022/12/07 05:45:25;;;;;;;6.15;0.90;;;;;;;4.85;100.00;101720.22;5060026;28;20034;-39
2022/12/07 05:47:50;;;;;;;13.18;1.27;;;;;;;4.88;100.00;101719.13;5068565;28;20367;-40
2022/12/07 05:50:15;;;;;;;12.27;1.42;;;;;;;4.85;100.00;101720.22;5054289;28;20337;-40
2022/12/07 05:52:41;;;;;;;13.25;1.45;;;;;;;4.84;100.00;101719.38;5060977;28;20487;-40
2022/12/07 05:55:06;;;;;;;17.48;1.55;;;;;;;4.90;100.00;101717.16;5065078;28;20123;-39
2022/12/07 05:57:32;;;;;;;8.82;1.65;;;;;;;4.88;100.00;101722.63;5061779;28;20063;-39
2022/12/07 05:59:57;;;;;;;10.05;1.15;;;;;;;4.87;100.00;101718.28;5054353;28;20100;-40
2022/12/07 06:02:22;;;;;;;9.23;1.25;;;;;;;4.87;100.00;101726.28;5073065;28;20055;-40
2022/12/07 06:04:48;;;;;;;10.88;1.70;;;;;;;4.89;100.00;101720.81;5072879;28;20035;-40
2022/12/07 06:07:15;;;;;;;12.05;1.13;;;;;;;4.81;100.00;101724.94;5066050;28;20504;-38
2022/12/07 06:09:41;;;;;;;9.60;1.13;;;;;;;4.82;100.00;101718.66;5059598;28;20056;-40
2022/12/07 06:15:03;;;;;;;10.82;1.00;;;;;;;4.80;100.00;101722.41;5072656;28;20037;-39
2022/12/07 06:17:28;;;;;;;9.10;0.80;;;;;;;4.79;100.00;101712.69;5062507;28;20332;-41
2022/12/07 06:19:54;;;;;;;10.98;1.13;;;;;;;4.77;100.00;101722.66;5067624;28;20116;-40
2022/12/07 06:22:19;;;;;;;6.32;0.82;;;;;;;4.78;100.00;101708.34;5072500;28;20021;-40
2022/12/07 06:24:44;;;;;;;5.88;0.85;;;;;;;4.84;100.00;101713.16;5070736;28;20448;-40
2022/12/07 06:27:10;;;;;;;4.43;0.80;;;;;;;4.82;100.00;101712.47;5060043;28;20040;-39
2022/12/07 06:29:36;;;;;;;13.60;0.93;;;;;;;4.86;100.00;101705.06;5059122;28;20033;-40
2022/12/07 06:32:02;;;;;;;6.88;1.10;;;;;;;4.94;100.00;101707.94;5072143;28;20036;-38
2022/12/07 06:34:27;;;;;;;8.00;1.02;;;;;;;4.95;100.00;101714.97;5058816;28;20035;-41
2022/12/07 06:36:54;;;;;;;3.03;0.80;;;;;;;4.95;100.00;101721.19;5062970;28;20119;-39
2022/12/07 06:39:21;;;;;;;11.23;1.23;;;;;;;4.97;100.00;101721.88;5061150;28;20035;-39
2022/12/07 06:41:47;;;;;;;10.70;1.17;;;;;;;4.99;100.00;101719.94;5054467;28;20354;-40
2022/12/07 06:44:13;;;;;;;10.80;1.10;;;;;;;4.95;100.00;101718.50;5053441;28;20147;-39
2022/12/07 06:46:38;;;;;;;3.33;0.70;;;;;;;4.93;100.00;101714.28;5051634;28;20117;-40
2022/12/07 06:49:04;;;;;;;12.23;1.02;;;;;;;4.89;100.00;101727.00;5053226;28;20116;-38
2022/12/07 06:51:30;;;;;;;5.32;1.33;;;;;;;4.93;100.00;101731.13;5053280;28;20425;-38
2022/12/07 06:53:56;;;;;;;11.20;0.80;;;;;;;4.89;100.00;101731.47;5051782;28;20056;-41
2022/12/07 06:56:22;;;;;;;5.90;1.73;;;;;;;4.94;100.00;101719.47;5054498;28;20024;-42
2022/12/07 06:58:48;;;;;;;17.17;1.00;;;;;;;5.03;100.00;101723.22;5060751;28;20036;-40
2022/12/07 07:01:15;;;;;;;3.05;0.70;;;;;;;5.00;100.00;101723.44;5064324;28;20032;-39
2022/12/07 07:03:40;;;;;;;10.30;1.60;;;;;;;4.92;100.00;101729.41;5052363;28;20033;-40
2022/12/07 07:06:07;;;;;;;8.35;0.90;;;;;;;4.79;100.00;101724.22;5060472;28;20082;-39
2022/12/07 07:08:33;;;;;;;8.98;1.02;;;;;;;4.76;100.00;101731.59;5069937;28;20483;-40
2022/12/07 07:10:58;;;;;;;12.50;0.95;;;;;;;4.75;100.00;101733.44;5051106;28;20483;-38
2022/12/07 07:13:24;;;;;;;7.03;0.95;;;;;;;4.72;100.00;101738.19;5052318;28;20079;-40
2022/12/07 07:15:49;;;;;;;9.27;2.00;;;;;;;4.69;100.00;101743.75;5059230;28;20344;-39
2022/12/07 07:18:14;;;;;;;9.82;1.13;;;;;;;4.75;100.00;101737.94;5071012;28;20040;-40
2022/12/07 07:20:40;;;;;;;4.00;1.40;;;;;;;4.76;100.00;101735.13;5070947;28;20032;-40
2022/12/07 07:23:05;;;;;;;8.52;0.95;;;;;;;4.72;100.00;101731.00;5062435;28;20083;-39
2022/12/07 07:25:31;;;;;;;7.88;1.10;;;;;;;4.73;100.00;101739.84;5058587;28;20028;-41
2022/12/07 07:27:56;;;;;;;13.88;1.73;;;;;;;4.76;100.00;101736.94;5050858;28;20079;-41
2022/12/07 07:30:22;;;;;;;7.60;1.08;;;;;;;4.77;100.00;101736.00;5051015;28;21499;-40
2022/12/07 07:32:48;;;;;;;11.45;1.38;;;;;;;4.82;100.00;101741.81;5051749;28;20526;-41
2022/12/07 07:35:14;;;;;;;10.43;1.10;;;;;;;4.81;100.00;101737.44;5064404;28;20081;-40
2022/12/07 07:37:40;;;;;;;6.72;0.98;;;;;;;4.84;100.00;101735.38;5063199;28;20043;-40
2022/12/07 07:40:06;;;;;;;11.48;1.30;;;;;;;4.90;100.00;101739.38;5062754;28;20062;-40
2022/12/07 07:42:37;;;;;;;6.63;0.90;;;;;;;4.88;100.00;101743.13;5042318;28;20061;-42
2022/12/07 07:45:03;;;;;;;7.72;1.00;;;;;;;4.84;100.00;101735.38;5051237;28;20032;-39
2022/12/07 07:47:28;;;;;;;12.60;1.30;;;;;;;4.87;100.00;101736.97;5062358;28;20050;-39
2022/12/07 07:49:54;;;;;;;6.63;1.00;;;;;;;4.91;100.00;101738.38;5062204;28;20462;-38
2022/12/07 07:52:19;;;;;;;7.30;1.33;;;;;;;4.92;100.00;101736.56;5061016;28;20042;-42
2022/12/07 07:54:45;;;;;;;8.23;1.00;;;;;;;4.93;100.00;101736.44;5063200;28;20036;-39
2022/12/07 07:57:10;;;;;;;6.30;1.17;;;;;;;4.88;100.00;101735.13;5060647;28;20470;-39
2022/12/07 07:59:35;;;;;;;5.97;0.70;;;;;;;4.90;100.00;101736.69;5064361;28;20025;-39
2022/12/07 08:02:01;;;;;;;9.82;1.85;;;;;;;4.94;100.00;101729.28;5060734;28;20031;-37
2022/12/07 08:04:26;;;;;;;8.32;1.52;;;;;;;5.03;100.00;101726.75;5063217;28;20119;-40
2022/12/07 08:06:51;;;;;;;9.82;0.75;;;;;;;5.09;100.00;101732.56;5062072;28;20025;-40
2022/12/07 08:09:17;;;;;;;4.18;0.73;;;;;;;5.19;100.00;101736.19;5060752;28;20039;-40
2022/12/07 08:11:42;;;;;;;7.78;1.00;;;;;;;5.32;100.00;101736.00;5064556;28;20186;-38
2022/12/07 08:14:07;;;;;;;11.00;1.30;;;;;;;5.53;100.00;101741.38;5063703;28;20119;-38
2022/12/07 08:16:33;;;;;;;11.50;1.10;;;;;;;5.70;100.00;101746.19;5063045;28;20431;-40
2022/12/07 08:18:58;;;;;;;3.95;0.88;;;;;;;5.81;100.00;101739.94;5060143;28;20021;-37
2022/12/07 08:21:23;;;;;;;2.38;0.63;;;;;;;5.89;100.00;101735.63;5063858;28;20052;-39
2022/12/07 08:23:49;;;;;;;5.45;0.70;;;;;;;6.30;100.00;101733.97;5060638;28;20024;-40
2022/12/07 08:26:15;;;;;;;7.15;0.88;;;;;;;6.93;100.00;101741.03;5063793;28;20071;-37
2022/12/07 08:28:41;;;;;;;9.25;1.23;;;;;;;7.22;100.00;101739.25;5060734;28;20048;-38
2022/12/07 08:31:17;;;;;;;6.63;1.27;;;;;;;7.51;100.00;101737.59;5060061;28;20032;-39
2022/12/07 08:33:45;;;;;;;7.28;1.00;;;;;;;7.70;100.00;101726.88;5062772;28;20062;-40
2022/12/07 08:36:11;;;;;;;8.68;2.28;;;;;;;7.79;100.00;101730.53;5063647;28;20571;-40
2022/12/07 08:38:39;;;;;;;7.85;1.63;;;;;;;7.78;100.00;101728.84;5063498;28;20562;-40
2022/12/07 08:41:04;;;;;;;6.87;1.50;;;;;;;8.33;100.00;101731.72;5062148;28;20052;-40
2022/12/07 08:43:30;;;;;;;6.35;1.63;;;;;;;9.04;100.00;101724.97;5064136;28;20052;-38
2022/12/07 08:46:23;;;;;;;8.77;0.98;;;;;;;9.48;100.00;101725.94;5056241;28;20045;-41
2022/12/07 08:48:56;;;;;;;6.75;1.13;;;;;;;10.25;97.22;101726.22;5062406;28;20100;-40
2022/12/07 08:51:22;;;;;;;7.70;1.20;;;;;;;10.44;92.61;101728.72;5058536;28;20487;-39
2022/12/07 08:53:49;;;;;;;7.63;1.60;;;;;;;10.92;89.49;101723.75;5059336;28;20025;-40
2022/12/07 08:56:14;;;;;;;4.72;1.58;;;;;;;10.65;84.81;101722.97;5057495;28;20035;-40
2022/12/07 08:58:40;;;;;;;11.18;2.55;;;;;;;9.99;83.75;101718.16;5061820;28;20036;-39
2022/12/07 09:01:05;;;;;;;12.43;2.17;;;;;;;9.74;83.80;101726.03;5058677;28;20043;-40
2022/12/07 09:03:31;;;;;;;8.75;1.25;;;;;;;9.01;85.36;101724.28;5062952;28;20479;-39
2022/12/07 09:05:57;;;;;;;10.07;0.80;;;;;;;8.68;90.54;101723.00;5061122;28;20064;-39
2022/12/07 09:08:45;;;;;;;12.93;1.30;;;;;;;8.26;93.91;101722.56;5060435;28;20029;-41
2022/12/07 09:11:11;;;;;;;9.45;1.20;;;;;;;7.90;96.83;101731.25;5059151;28;20052;-39
2022/12/07 09:13:36;;;;;;;8.82;1.40;;;;;;;7.40;99.32;101733.22;5056516;28;20055;-37
2022/12/07 09:16:02;;;;;;;10.20;1.05;;;;;;;7.11;100.00;101723.31;5060090;28;20029;-40
2022/12/07 09:18:27;;;;;;;9.27;1.30;;;;;;;6.97;100.00;101729.88;5062501;28;20492;-40
2022/12/07 09:20:52;;;;;;;6.90;1.08;;;;;;;7.42;100.00;101733.91;5061845;28;20032;-40
2022/12/07 09:23:18;;;;;;;8.32;1.27;;;;;;;8.18;100.00;101734.00;5061178;28;20158;-39
2022/12/07 09:25:43;;;;;;;4.55;1.27;;;;;;;8.67;100.00;101725.88;5063133;28;20491;-37
2022/12/07 09:28:08;;;;;;;6.00;1.25;;;;;;;9.59;100.00;101724.88;5058487;28;20186;-39
2022/12/07 09:30:34;;;;;;;13.02;1.77;;;;;;;9.78;97.69;101719.31;5064075;28;20033;-40
2022/12/07 09:33:00;;;;;;;10.98;1.52;;;;;;;9.99;94.39;101712.78;5061645;28;20368;-40
2022/12/07 09:35:26;;;;;;;8.55;1.35;;;;;;;10.45;92.16;101719.66;5063383;28;20491;-38
2022/12/07 09:37:51;;;;;;;8.38;1.30;;;;;;;10.87;85.52;101715.31;5062540;28;20047;-39
2022/12/07 09:40:18;;;;;;;6.57;1.02;;;;;;;11.05;81.04;101716.03;5063173;28;20371;-38
2022/12/07 09:42:45;;;;;;;7.35;2.00;;;;;;;11.20;80.64;101717.09;5059597;28;20352;-39
2022/12/07 09:45:32;;;;;;;13.70;1.27;;;;;;;11.44;78.57;101712.75;5061293;28;20445;-40
2022/12/07 09:47:58;;;;;;;8.38;1.05;;;;;;;11.77;74.44;101719.03;5060543;28;20486;-38
2022/12/07 09:50:26;;;;;;;11.95;2.33;;;;;;;11.28;73.46;101708.19;5056920;28;20075;-38
2022/12/07 09:52:52;;;;;;;9.05;1.20;;;;;;;11.33;71.98;101715.78;5062496;28;20037;-40
2022/12/07 09:55:24;;;;;;;6.38;0.98;;;;;;;11.50;73.48;101717.47;5059873;28;20032;-39
2022/12/07 09:57:51;;;;;;;7.15;1.23;;;;;;;11.21;74.11;101710.69;5060826;28;20037;-39
2022/12/07 10:00:19;;;;;;;8.18;1.20;;;;;;;11.00;74.19;101710.28;5059384;28;20032;-38
2022/12/07 10:02:46;;;;;;;;;;;;;;;10.45;77.01;101716.97;5063928;28;20066;-39
2022/12/07 10:05:15;;;;;;;9.73;1.13;;;;;;;10.11;79.01;101706.97;5062972;28;20787;-40
2022/12/07 10:07:41;;;;;;;6.88;1.00;;;;;;;9.97;81.67;101707.53;5066001;28;20028;-39
2022/12/07 10:10:14;;;;;;;9.57;1.38;;;;;;;9.64;82.36;101704.59;5066687;28;20037;-40
2022/12/07 10:13:00;;;;;;;5.97;0.80;;;;;;;9.25;83.14;101703.22;5069614;28;20095;-39
2022/12/07 10:15:48;;;;;;;6.63;0.80;;;;;;;8.92;85.34;101702.84;5067938;28;20400;-40
2022/12/07 10:18:40;;;;;;;8.85;1.10;;;;;;;8.61;87.64;101708.53;5065681;28;20375;-37
2022/12/07 10:21:13;;;;;;;5.75;1.25;;;;;;;8.33;89.28;101702.22;5065481;28;20114;-39
2022/12/07 10:24:02;;;;;;;7.65;0.90;;;;;;;8.07;91.93;101702.84;5066315;28;20028;-39
2022/12/07 10:26:34;;;;;;;11.80;1.73;;;;;;;8.12;92.12;101705.94;5065632;28;20132;-38
2022/12/07 10:29:15;;;;;;;6.45;0.93;;;;;;;8.26;93.94;101701.13;5064623;28;20056;-38
2022/12/07 10:31:41;;;;;;;7.10;0.98;;;;;;;8.38;93.07;101696.44;5066726;28;20744;-39
2022/12/07 10:34:20;;;;;;;9.38;1.20;;;;;;;8.27;90.50;101698.31;5068578;28;20081;-38
2022/12/07 10:36:45;;;;;;;3.90;0.82;;;;;;;8.20;92.43;101688.28;5069688;28;20174;-39
2022/12/07 10:39:16;;;;;;;5.78;0.70;;;;;;;8.23;91.02;101686.16;5066079;28;20139;-38
2022/12/07 10:42:01;;;;;;;7.50;1.00;;;;;;;8.23;92.27;101680.78;5065583;28;20475;-38
2022/12/07 10:44:29;;;;;;;6.78;1.00;;;;;;;8.18;93.33;101687.59;5067111;28;20048;-40
2022/12/07 10:47:12;;;;;;;8.30;1.00;;;;;;;8.00;94.76;101679.44;5068319;28;20497;-39
2022/12/07 10:49:37;;;;;;;5.28;0.80;;;;;;;7.98;97.12;101671.56;5065223;28;20114;-40
2022/12/07 10:52:08;;;;;;;7.20;1.20;;;;;;;7.99;97.45;101662.53;5065469;28;20029;-38
2022/12/07 10:54:40;;;;;;;5.18;1.00;;;;;;;8.05;97.25;101661.94;5068670;28;20453;-39
2022/12/07 10:57:24;;;;;;;8.18;1.50;;;;;;;8.12;96.01;101665.72;5067696;28;20024;-40
2022/12/07 11:00:13;;;;;;;10.18;1.65;;;;;;;8.06;95.29;101663.63;5065105;28;20490;-40
2022/12/07 11:03:16;;;;;;;9.60;2.10;;;;;;;8.04;94.77;101654.91;5064223;28;20151;-42
2022/12/07 11:05:53;;;;;;;7.82;1.17;;;;;;;7.97;95.42;101655.63;5063606;28;20036;-39
2022/12/07 11:08:32;;;;;;;13.68;1.20;;;;;;;7.91;95.41;101660.56;5064780;28;20482;-39
2022/12/07 11:11:16;;;;;;;7.63;1.10;;;;;;;7.90;97.73;101656.19;5068904;28;20032;-38
2022/12/07 11:14:06;;;;;;;10.05;1.52;;;;;;;8.16;99.50;101642.13;5068764;28;20040;-39
2022/12/07 11:17:05;;;;;;;13.68;1.90;;;;;;;8.44;97.97;101648.41;5065048;28;20028;-41
2022/12/07 11:19:52;;;;;;;11.52;1.50;;;;;;;8.48;95.89;101676.66;5062962;28;20060;-39
2022/12/07 11:22:42;;;;;;;9.35;1.20;;;;;;;7.84;100.00;101680.88;5066466;28;20082;-41
2022/12/07 11:25:21;;;;;;;6.18;1.35;;;;;;;7.07;100.00;101687.09;5065402;28;20056;-46
2022/12/07 11:28:19;;;;;;;8.18;1.20;;;;;;;6.68;100.00;101686.16;5083073;28;20087;-46
2022/12/07 11:31:10;;;;;;;6.40;1.00;;;;;;;6.35;100.00;101680.13;5067506;28;20499;-45
2022/12/07 11:33:38;;;;;;;8.95;1.27;;;;;;;6.10;100.00;101674.22;5067072;28;20040;-42
2022/12/07 11:36:08;;;;;;;;;;;;;;;6.04;100.00;101677.41;5069243;28;20024;-41
2022/12/07 11:38:55;;;;;;;14.40;1.58;;;;;;;6.06;100.00;101685.31;5067653;28;19920;-43
2022/12/07 11:41:24;;;;;;;6.32;0.85;;;;;;;6.03;100.00;101672.19;5067367;28;20020;-41